createdAt,value
2023-04-10T00:00:26.534Z,8.70
2023-04-10T00:03:13.020Z,8.25
2023-04-10T00:05:59.101Z,9.23
2023-04-10T00:08:44.605Z,8.73
2023-04-10T00:11:30.208Z,8.13
2023-04-10T00:14:15.852Z,8.88
2023-04-10T00:17:01.694Z,8.05
2023-04-10T00:19:47.648Z,7.95
2023-04-10T00:22:33.530Z,8.07
2023-04-10T00:25:19.757Z,7.93
2023-04-10T00:28:05.442Z,7.47
2023-04-10T00:30:51.208Z,8.50
2023-04-10T00:33:36.922Z,8.77
2023-04-10T00:36:22.535Z,8.40
2023-04-10T00:39:09.548Z,8.48
2023-04-10T00:41:55.548Z,8.93
2023-04-10T00:44:41.538Z,8.48
2023-04-10T00:47:28.405Z,8.95
2023-04-10T00:50:14.069Z,8.82
2023-04-10T00:52:59.752Z,8.90
2023-04-10T00:55:45.692Z,8.43
2023-04-10T00:58:31.663Z,9.32
2023-04-10T01:01:17.908Z,9.00
2023-04-10T01:04:05.054Z,9.07
2023-04-10T01:07:00.680Z,9.10
2023-04-10T01:10:13.909Z,9.13
2023-04-10T01:13:11.864Z,9.75
2023-04-10T01:15:59.131Z,8.30
2023-04-10T01:18:51.162Z,8.13
2023-04-10T01:21:37.788Z,8.02
2023-04-10T01:24:23.508Z,8.63
2023-04-10T01:27:35.450Z,8.65
2023-04-10T01:30:24.870Z,8.43
2023-04-10T01:33:13.561Z,8.70
2023-04-10T01:36:03.896Z,8.57
2023-04-10T01:38:51.230Z,7.95
2023-04-10T01:41:37.603Z,8.95
2023-04-10T01:44:26.174Z,8.75
2023-04-10T01:47:14.869Z,9.00
2023-04-10T01:50:02.067Z,8.52
2023-04-10T01:52:48.864Z,8.23
2023-04-10T01:55:41.523Z,9.32
2023-04-10T01:58:30.643Z,8.35
2023-04-10T02:01:29.638Z,8.25
2023-04-10T02:04:17.456Z,8.80
2023-04-10T02:07:03.993Z,8.32
2023-04-10T02:10:08.444Z,7.57
2023-04-10T02:13:04.079Z,8.15
2023-04-10T02:15:51.118Z,7.20
2023-04-10T02:18:38.950Z,7.55
2023-04-10T02:21:24.734Z,7.22
2023-04-10T02:24:10.462Z,7.50
2023-04-10T02:26:56.531Z,7.47
2023-04-10T02:29:42.480Z,7.32
2023-04-10T02:32:28.209Z,7.30
2023-04-10T02:35:14.114Z,7.03
2023-04-10T02:37:59.957Z,6.88
2023-04-10T02:40:46.598Z,6.90
2023-04-10T02:43:33.940Z,7.00
2023-04-10T02:46:20.070Z,7.20
2023-04-10T02:49:06.426Z,6.72
2023-04-10T02:51:52.725Z,7.10
2023-04-10T02:54:38.481Z,6.82
2023-04-10T02:57:24.248Z,6.63
2023-04-10T03:00:11.628Z,6.70
2023-04-10T03:03:29.862Z,6.63
2023-04-10T03:06:16.181Z,6.20
2023-04-10T03:09:04.848Z,6.82
2023-04-10T03:11:52.254Z,6.53
2023-04-10T03:14:37.921Z,6.63
2023-04-10T03:17:23.710Z,7.38
2023-04-10T03:20:10.607Z,7.07
2023-04-10T03:22:56.804Z,7.05
2023-04-10T03:25:45.515Z,7.18
2023-04-10T03:28:32.957Z,7.63
2023-04-10T03:31:18.505Z,7.53
2023-04-10T03:34:04.837Z,8.10
2023-04-10T03:36:51.600Z,7.78
2023-04-10T03:39:37.733Z,7.72
2023-04-10T03:42:23.797Z,7.35
2023-04-10T03:45:10.842Z,7.63
2023-04-10T03:47:56.713Z,7.90
2023-04-10T03:50:42.266Z,8.70
2023-04-10T03:53:28.457Z,7.85
2023-04-10T03:56:16.193Z,7.72
2023-04-10T03:59:02.739Z,8.40
2023-04-10T04:01:50.662Z,7.80
2023-04-10T04:04:37.106Z,7.75
2023-04-10T04:07:58.183Z,8.10
2023-04-10T04:10:55.796Z,7.93
2023-04-10T04:13:52.076Z,7.53
2023-04-10T04:16:56.259Z,8.30
2023-04-10T04:20:12.311Z,7.57
2023-04-10T04:24:06.145Z,7.63
2023-04-10T04:27:14.573Z,8.43
2023-04-10T04:30:29.812Z,7.82
2023-04-10T04:33:45.065Z,8.55
2023-04-10T04:36:49.520Z,8.20
2023-04-10T04:40:13.730Z,7.18
2023-04-10T04:43:17.536Z,7.82
2023-04-10T04:46:23.517Z,7.70
2023-04-10T04:49:29.483Z,7.63
2023-04-10T04:52:35.392Z,7.40
2023-04-10T04:55:39.827Z,7.50
2023-04-10T04:58:48.725Z,7.22
2023-04-10T05:01:34.590Z,6.47
2023-04-10T05:04:31.930Z,7.47
2023-04-10T05:07:31.461Z,6.95
2023-04-10T05:10:31.750Z,6.55
2023-04-10T05:13:30.301Z,7.30
2023-04-10T05:16:35.627Z,6.32
2023-04-10T05:19:50.714Z,6.60
2023-04-10T05:22:58.289Z,6.35
2023-04-10T05:26:22.604Z,6.30
2023-04-10T05:29:16.203Z,5.55
2023-04-10T05:32:37.686Z,5.70
2023-04-10T05:35:42.111Z,5.60
2023-04-10T05:38:52.367Z,5.32
2023-04-10T05:41:53.790Z,5.80
2023-04-10T05:44:58.386Z,5.38
2023-04-10T05:48:13.676Z,6.07
2023-04-10T05:51:20.096Z,5.22
2023-04-10T05:54:26.019Z,4.63
2023-04-10T05:57:29.935Z,4.07
2023-04-10T06:00:35.550Z,4.90
2023-04-10T06:03:40.076Z,4.65
2023-04-10T06:06:26.916Z,4.35
2023-04-10T06:09:12.889Z,4.32
2023-04-10T06:11:58.899Z,4.28
2023-04-10T06:14:45.296Z,3.97
2023-04-10T06:17:31.706Z,3.55
2023-04-10T06:20:17.694Z,4.55
2023-04-10T06:23:03.564Z,4.40
2023-04-10T06:25:49.776Z,3.95
2023-04-10T06:28:35.589Z,3.35
2023-04-10T06:31:23.152Z,3.45
2023-04-10T06:34:09.025Z,3.60
2023-04-10T06:37:06.233Z,3.33
2023-04-10T06:39:52.111Z,3.47
2023-04-10T06:42:38.286Z,3.20
2023-04-10T06:45:32.469Z,3.47
2023-04-10T06:48:18.183Z,3.33
2023-04-10T06:51:04.426Z,2.95
2023-04-10T06:53:50.366Z,2.70
2023-04-10T06:56:36.297Z,3.33
2023-04-10T06:59:21.938Z,2.95
2023-04-10T07:02:07.837Z,2.70
2023-04-10T07:04:54.057Z,3.15
2023-04-10T07:07:40.086Z,3.00
2023-04-10T07:10:25.963Z,2.92
2023-04-10T07:13:11.873Z,2.78
2023-04-10T07:15:57.675Z,3.00
2023-04-10T07:18:45.114Z,3.53
2023-04-10T07:21:33.144Z,3.00
2023-04-10T07:24:19.349Z,4.05
2023-04-10T07:27:05.250Z,4.25
2023-04-10T07:29:52.464Z,3.63
2023-04-10T07:32:39.882Z,3.88
2023-04-10T07:35:26.047Z,3.72
2023-04-10T07:38:13.283Z,4.10
2023-04-10T07:40:59.607Z,5.05
2023-04-10T07:43:46.520Z,5.20
2023-04-10T07:46:32.580Z,6.00
2023-04-10T07:49:18.431Z,5.95
2023-04-10T07:52:04.163Z,5.15
2023-04-10T07:54:51.578Z,5.82
2023-04-10T07:57:37.420Z,9.80
2023-04-10T08:00:23.082Z,6.72
2023-04-10T08:03:09.127Z,6.22
2023-04-10T08:05:55.082Z,6.45
2023-04-10T08:08:42.271Z,6.78
2023-04-10T08:11:29.847Z,6.25
2023-04-10T08:14:18.446Z,6.63
2023-04-10T08:17:04.312Z,6.28
2023-04-10T08:19:50.281Z,7.00
2023-04-10T08:22:36.061Z,7.30
2023-04-10T08:25:21.755Z,7.03
2023-04-10T08:28:07.430Z,7.97
2023-04-10T08:30:56.044Z,7.60
2023-04-10T08:33:41.797Z,7.90
2023-04-10T08:36:27.866Z,8.23
2023-04-10T08:39:13.683Z,8.32
2023-04-10T08:41:59.313Z,8.90
2023-04-10T08:44:45.918Z,8.95
2023-04-10T08:47:36.540Z,8.90
2023-04-10T08:50:22.139Z,9.15
2023-04-10T08:53:11.788Z,8.63
2023-04-10T08:56:01.881Z,9.00
2023-04-10T08:58:48.090Z,8.75
2023-04-10T09:01:34.978Z,8.52
2023-04-10T09:04:21.197Z,9.00
2023-04-10T09:07:07.018Z,8.73
2023-04-10T09:09:52.886Z,8.10
2023-04-10T09:12:46.368Z,8.18
2023-04-10T09:15:55.552Z,8.25
2023-04-10T09:18:49.904Z,6.93
2023-04-10T09:21:35.417Z,7.20
2023-04-10T09:24:21.045Z,7.78
2023-04-10T09:27:07.346Z,8.68
2023-04-10T09:29:52.978Z,12.73
2023-04-10T09:32:43.917Z,11.48
2023-04-10T09:35:38.262Z,8.93
2023-04-10T09:38:25.739Z,9.68
2023-04-10T09:41:12.860Z,9.05
2023-04-10T09:44:09.361Z,9.63
2023-04-10T09:46:55.536Z,8.40
2023-04-10T09:49:52.655Z,8.60
2023-04-10T09:52:38.414Z,8.82
2023-04-10T09:55:24.602Z,9.68
2023-04-10T09:58:11.204Z,8.95
2023-04-10T10:00:57.169Z,8.80
2023-04-10T10:03:44.056Z,9.68
2023-04-10T10:06:32.048Z,8.77
2023-04-10T10:09:18.067Z,10.13
2023-04-10T10:12:04.284Z,10.60
2023-04-10T10:15:02.174Z,8.90
2023-04-10T10:17:56.466Z,9.25
2023-04-10T10:20:45.655Z,8.80
2023-04-10T10:23:32.414Z,8.50
2023-04-10T10:26:19.481Z,9.45
2023-04-10T10:29:13.477Z,9.15
2023-04-10T10:32:03.011Z,9.60
2023-04-10T10:34:53.056Z,9.75
2023-04-10T10:37:39.836Z,9.40
2023-04-10T10:40:32.864Z,9.48
2023-04-10T10:43:25.717Z,8.02
2023-04-10T10:46:17.919Z,9.30
2023-04-10T10:49:04.034Z,8.00
2023-04-10T10:51:51.189Z,9.40
2023-04-10T10:54:42.436Z,10.93
2023-04-10T10:57:49.404Z,10.25
2023-04-10T11:01:13.284Z,10.30
2023-04-10T11:04:00.279Z,10.32
2023-04-10T11:06:51.435Z,9.93
2023-04-10T11:09:48.596Z,9.70
2023-04-10T11:13:26.476Z,10.00
2023-04-10T11:16:12.160Z,12.35
2023-04-10T11:19:13.435Z,11.15
2023-04-10T11:22:08.444Z,9.83
2023-04-10T11:24:59.630Z,9.57
2023-04-10T11:27:49.650Z,9.90
2023-04-10T11:30:37.057Z,10.65
2023-04-10T11:33:22.888Z,11.55
2023-04-10T11:36:08.732Z,10.70
2023-04-10T11:39:09.738Z,10.40
2023-04-10T11:41:57.816Z,16.75
2023-04-10T11:44:43.741Z,16.67
2023-04-10T11:47:29.731Z,12.50
2023-04-10T11:50:15.738Z,11.13
2023-04-10T11:53:01.720Z,11.00
2023-04-10T11:55:47.919Z,9.90
2023-04-10T11:58:34.295Z,10.02
2023-04-10T12:01:21.759Z,9.45
2023-04-10T12:04:18.888Z,9.38
2023-04-10T12:07:05.157Z,9.07
2023-04-10T12:10:00.704Z,9.13
2023-04-10T12:12:46.872Z,7.85
2023-04-10T12:15:33.228Z,7.93
2023-04-10T12:18:19.554Z,8.40
2023-04-10T12:21:07.625Z,8.65
2023-04-10T12:23:54.403Z,8.05
2023-04-10T12:26:48.970Z,8.75
2023-04-10T12:29:34.612Z,10.30
2023-04-10T12:32:21.349Z,8.70
2023-04-10T12:35:07.288Z,9.20
2023-04-10T12:37:54.783Z,9.77
2023-04-10T12:41:09.717Z,8.82
2023-04-10T12:44:10.592Z,9.27
2023-04-10T12:47:01.669Z,8.48
2023-04-10T12:50:11.428Z,8.35
2023-04-10T12:53:07.533Z,7.75
2023-04-10T12:56:01.973Z,7.78
2023-04-10T12:59:08.933Z,7.93
2023-04-10T13:02:02.656Z,7.32
2023-04-10T13:04:48.810Z,7.97
2023-04-10T13:07:34.975Z,7.30
2023-04-10T13:10:20.652Z,8.40
2023-04-10T13:13:09.204Z,7.93
2023-04-10T13:15:55.816Z,7.95
2023-04-10T13:18:41.970Z,9.25
2023-04-10T13:21:28.653Z,7.95
2023-04-10T13:24:16.649Z,8.50
2023-04-10T13:27:02.971Z,9.05
2023-04-10T13:29:48.696Z,9.43
2023-04-10T13:32:34.442Z,9.35
2023-04-10T13:35:20.253Z,8.52
2023-04-10T13:38:06.891Z,8.40
2023-04-10T13:40:53.580Z,8.00
2023-04-10T13:43:39.509Z,11.20
2023-04-10T13:46:26.049Z,12.25
2023-04-10T13:49:11.959Z,12.15
2023-04-10T13:51:58.282Z,11.70
2023-04-10T13:54:44.229Z,11.18
2023-04-10T13:57:30.016Z,10.18
2023-04-10T14:00:16.014Z,9.30
2023-04-10T14:03:02.271Z,10.25
2023-04-10T14:05:48.468Z,8.32
2023-04-10T14:08:34.127Z,6.28
2023-04-10T14:11:20.644Z,5.20
2023-04-10T14:14:06.852Z,4.82
2023-04-10T14:16:52.935Z,4.72
2023-04-10T14:19:39.792Z,4.05
2023-04-10T14:22:25.598Z,4.45
2023-04-10T14:25:15.897Z,3.45
2023-04-10T14:28:02.092Z,4.10
2023-04-10T14:30:49.290Z,4.28
2023-04-10T14:33:35.519Z,4.20
2023-04-10T14:36:21.389Z,4.03
2023-04-10T14:39:07.175Z,6.32
2023-04-10T14:41:52.920Z,6.05
2023-04-10T14:44:39.315Z,7.53
2023-04-10T14:47:25.209Z,6.45
2023-04-10T14:50:11.688Z,6.80
2023-04-10T14:53:00.155Z,7.85
2023-04-10T14:55:45.894Z,7.57
2023-04-10T14:58:31.762Z,7.65
2023-04-10T15:01:17.571Z,9.35
2023-04-10T15:04:19.643Z,8.48
2023-04-10T15:07:05.566Z,8.40
2023-04-10T15:09:51.402Z,7.75
2023-04-10T15:12:37.111Z,6.05
2023-04-10T15:15:22.885Z,7.13
2023-04-10T15:18:08.607Z,7.82
2023-04-10T15:20:55.939Z,6.93
2023-04-10T15:23:41.737Z,7.55
2023-04-10T15:26:27.389Z,9.05
2023-04-10T15:29:13.587Z,6.75
2023-04-10T15:32:02.342Z,6.72
2023-04-10T15:34:47.910Z,5.82
2023-04-10T15:37:35.334Z,4.65
2023-04-10T15:40:21.247Z,6.10
2023-04-10T15:43:06.857Z,5.55
2023-04-10T15:45:52.824Z,6.75
2023-04-10T15:48:38.840Z,7.50
2023-04-10T15:51:24.463Z,10.38
2023-04-10T15:54:11.048Z,11.48
2023-04-10T15:56:57.496Z,10.55
2023-04-10T15:59:43.097Z,8.50
2023-04-10T16:02:29.061Z,8.20
2023-04-10T16:05:15.205Z,9.18
2023-04-10T16:08:03.029Z,9.10
2023-04-10T16:10:48.952Z,10.95
2023-04-10T16:13:34.650Z,12.43
2023-04-10T16:16:20.276Z,11.55
2023-04-10T16:19:06.325Z,10.32
2023-04-10T16:21:52.440Z,10.68
2023-04-10T16:24:38.107Z,10.50
2023-04-10T16:27:24.016Z,10.45
2023-04-10T16:30:11.853Z,12.18
2023-04-10T16:32:57.978Z,11.20
2023-04-10T16:35:43.705Z,10.20
2023-04-10T16:38:29.295Z,10.75
2023-04-10T16:41:17.576Z,11.85
2023-04-10T16:44:03.318Z,9.40
2023-04-10T16:46:49.062Z,8.85
2023-04-10T16:49:34.730Z,10.10
2023-04-10T16:52:20.242Z,8.50
2023-04-10T16:55:06.539Z,6.95
2023-04-10T16:57:52.919Z,6.53
2023-04-10T17:00:39.153Z,5.68
2023-04-10T17:03:25.175Z,6.63
2023-04-10T17:06:10.994Z,6.43
2023-04-10T17:08:56.984Z,7.45
2023-04-10T17:11:43.286Z,7.40
2023-04-10T17:14:29.114Z,7.00
2023-04-10T17:17:15.191Z,6.70
2023-04-10T17:20:01.054Z,6.72
2023-04-10T17:22:47.081Z,6.05
2023-04-10T17:25:33.106Z,5.40
2023-04-10T17:28:18.822Z,6.30
2023-04-10T17:31:04.970Z,5.43
2023-04-10T17:33:51.089Z,6.25
2023-04-10T17:36:36.973Z,8.38
2023-04-10T17:39:23.613Z,5.53
2023-04-10T17:42:09.439Z,6.40
2023-04-10T17:44:55.345Z,8.43
2023-04-10T17:47:41.546Z,8.75
2023-04-10T17:50:28.568Z,8.02
2023-04-10T17:53:14.467Z,8.98
2023-04-10T17:56:00.452Z,7.70
2023-04-10T17:58:46.341Z,7.95
2023-04-10T18:01:32.556Z,8.27
2023-04-10T18:04:18.486Z,7.75
2023-04-10T18:07:04.154Z,7.97
2023-04-10T18:09:49.878Z,7.18
2023-04-10T18:12:35.740Z,7.30
2023-04-10T18:15:21.800Z,7.70
2023-04-10T18:18:07.713Z,7.43
2023-04-10T18:20:53.387Z,7.78
2023-04-10T18:23:40.181Z,7.97
2023-04-10T18:26:29.073Z,7.25
2023-04-10T18:29:14.943Z,7.40
2023-04-10T18:32:00.933Z,7.32
2023-04-10T18:34:46.681Z,7.60
2023-04-10T18:37:33.408Z,8.50
2023-04-10T18:40:19.283Z,8.05
2023-04-10T18:43:05.175Z,7.20
2023-04-10T18:45:51.711Z,7.35
2023-04-10T18:48:41.845Z,8.07
2023-04-10T18:51:27.813Z,7.70
2023-04-10T18:54:13.634Z,9.57
2023-04-10T18:56:59.527Z,7.47
2023-04-10T18:59:45.373Z,7.68
2023-04-10T19:02:31.386Z,8.10
2023-04-10T19:05:17.379Z,7.63
2023-04-10T19:08:04.758Z,7.68
2023-04-10T19:10:50.860Z,6.90
2023-04-10T19:13:36.663Z,7.90
2023-04-10T19:16:22.505Z,6.90
2023-04-10T19:19:08.590Z,6.47
2023-04-10T19:21:54.382Z,7.38
2023-04-10T19:24:40.111Z,7.10
2023-04-10T19:27:26.258Z,5.97
2023-04-10T19:30:12.659Z,6.10
2023-04-10T19:32:58.730Z,6.45
2023-04-10T19:35:44.618Z,6.57
2023-04-10T19:38:32.087Z,6.10
2023-04-10T19:41:18.264Z,6.10
2023-04-10T19:44:04.603Z,5.00
2023-04-10T19:46:50.508Z,5.45
2023-04-10T19:49:36.377Z,5.30
2023-04-10T19:52:22.283Z,5.10
2023-04-10T19:55:09.494Z,5.50
2023-04-10T19:57:55.314Z,4.90
2023-04-10T20:00:43.036Z,5.43
2023-04-10T20:03:31.054Z,5.40
2023-04-10T20:06:17.184Z,5.70
2023-04-10T20:09:02.973Z,5.60
2023-04-10T20:11:48.660Z,5.75
2023-04-10T20:14:34.321Z,6.20
2023-04-10T20:17:20.169Z,6.43
2023-04-10T20:20:06.854Z,5.90
2023-04-10T20:22:52.921Z,6.45
2023-04-10T20:25:38.979Z,5.43
2023-04-10T20:28:25.127Z,5.70
2023-04-10T20:31:12.377Z,6.68
2023-04-10T20:33:58.377Z,6.43
2023-04-10T20:36:44.273Z,6.32
2023-04-10T20:39:30.137Z,6.65
2023-04-10T20:42:17.112Z,6.28
2023-04-10T20:45:03.994Z,6.38
2023-04-10T20:47:49.650Z,6.68
2023-04-10T20:50:37.079Z,6.57
2023-04-10T20:53:22.846Z,6.80
2023-04-10T20:56:08.972Z,6.90
2023-04-10T20:58:55.002Z,8.02
2023-04-10T21:01:41.403Z,8.38
2023-04-10T21:04:27.479Z,8.68
2023-04-10T21:07:13.409Z,9.52
2023-04-10T21:09:59.337Z,9.50
2023-04-10T21:12:45.354Z,8.85
2023-04-10T21:15:31.135Z,8.23
2023-04-10T21:18:16.811Z,9.32
2023-04-10T21:21:02.633Z,9.23
2023-04-10T21:23:48.552Z,8.40
2023-04-10T21:26:34.203Z,7.72
2023-04-10T21:29:19.961Z,8.63
2023-04-10T21:32:05.725Z,10.00
2023-04-10T21:34:51.651Z,8.75
2023-04-10T21:37:37.626Z,8.52
2023-04-10T21:40:24.850Z,8.13
2023-04-10T21:43:10.600Z,8.57
2023-04-10T21:45:56.708Z,8.40
2023-04-10T21:48:42.567Z,9.25
2023-04-10T21:51:28.862Z,9.43
2023-04-10T21:54:18.098Z,9.25
2023-04-10T21:57:03.945Z,10.73
2023-04-10T21:59:50.154Z,9.73
2023-04-10T22:02:36.527Z,10.68
2023-04-10T22:05:24.466Z,10.20
2023-04-10T22:08:10.842Z,9.77
2023-04-10T22:10:56.788Z,9.88
2023-04-10T22:13:42.490Z,9.60
2023-04-10T22:16:28.220Z,10.02
2023-04-10T22:19:14.133Z,9.75
2023-04-10T22:22:01.258Z,9.80
2023-04-10T22:24:47.224Z,11.05
2023-04-10T22:27:33.282Z,10.25
2023-04-10T22:30:19.258Z,10.52
2023-04-10T22:33:05.059Z,10.35
2023-04-10T22:35:52.017Z,11.80
2023-04-10T22:38:38.177Z,11.73
2023-04-10T22:41:23.892Z,11.18
2023-04-10T22:44:09.904Z,12.68
2023-04-10T22:46:56.199Z,9.88
2023-04-10T22:49:42.168Z,11.75
2023-04-10T22:52:27.863Z,11.57
2023-04-10T22:55:47.801Z,10.85
2023-04-10T22:58:33.909Z,11.10
2023-04-10T23:01:19.988Z,10.45
2023-04-10T23:04:06.231Z,12.25
2023-04-10T23:06:52.000Z,11.88
2023-04-10T23:09:38.064Z,12.55
2023-04-10T23:12:33.109Z,12.25
2023-04-10T23:15:19.033Z,11.48
2023-04-10T23:18:04.852Z,11.90
2023-04-10T23:20:50.955Z,11.85
2023-04-10T23:23:39.916Z,12.68
2023-04-10T23:26:25.852Z,11.85
2023-04-10T23:29:11.772Z,12.70
2023-04-10T23:31:58.998Z,12.52
2023-04-10T23:34:44.837Z,12.48
2023-04-10T23:37:33.802Z,13.00
2023-04-10T23:40:20.228Z,13.65
2023-04-10T23:43:09.666Z,12.73
2023-04-10T23:45:56.603Z,13.50
2023-04-10T23:48:42.541Z,12.63
2023-04-10T23:51:28.420Z,13.02
2023-04-10T23:54:14.456Z,14.40
2023-04-10T23:57:02.796Z,13.90
2023-04-10T23:59:49.484Z,15.05
